createdAt,value
2018-05-29T00:00:26.198Z,92.50
2018-05-29T00:01:28.746Z,92.60
2018-05-29T00:02:31.360Z,92.60
2018-05-29T00:03:33.851Z,92.60
2018-05-29T00:04:37.099Z,92.70
2018-05-29T00:05:39.851Z,92.70
2018-05-29T00:06:42.355Z,92.70
2018-05-29T00:07:44.864Z,92.70
2018-05-29T00:08:47.352Z,92.80
2018-05-29T00:09:49.868Z,92.80
2018-05-29T00:10:53.339Z,93.00
2018-05-29T00:11:56.603Z,92.80
2018-05-29T00:12:59.103Z,92.90
2018-05-29T00:14:02.348Z,93.00
2018-05-29T00:15:05.204Z,92.90
2018-05-29T00:16:07.873Z,93.00
2018-05-29T00:17:10.374Z,93.00
2018-05-29T00:18:12.872Z,93.30
2018-05-29T00:19:16.114Z,93.10
2018-05-29T00:20:19.674Z,93.10
2018-05-29T00:21:22.296Z,93.20
2018-05-29T00:22:24.774Z,93.20
2018-05-29T00:23:28.043Z,93.30
2018-05-29T00:24:32.032Z,93.30
2018-05-29T00:25:34.759Z,93.30
2018-05-29T00:26:37.264Z,93.30
2018-05-29T00:27:39.743Z,93.30
2018-05-29T00:28:43.028Z,93.70
2018-05-29T00:29:46.276Z,93.60
2018-05-29T00:30:49.027Z,93.60
2018-05-29T00:31:51.543Z,93.70
2018-05-29T00:32:54.791Z,93.80
2018-05-29T00:33:57.295Z,93.80
2018-05-29T00:35:00.540Z,93.80
2018-05-29T00:36:03.293Z,93.80
2018-05-29T00:37:05.805Z,93.80
2018-05-29T00:38:09.061Z,93.80
2018-05-29T00:39:11.551Z,93.80
2018-05-29T00:40:14.221Z,93.80
2018-05-29T00:41:17.662Z,94.00
2018-05-29T00:42:20.169Z,94.00
2018-05-29T00:43:22.823Z,94.10
2018-05-29T00:44:26.855Z,94.20
2018-05-29T00:45:29.669Z,94.20
2018-05-29T00:46:32.199Z,94.20
2018-05-29T00:47:35.444Z,94.30
2018-05-29T00:48:37.924Z,94.30
2018-05-29T00:49:41.944Z,94.40
2018-05-29T00:50:44.699Z,94.40
2018-05-29T00:51:47.971Z,94.40
2018-05-29T00:52:50.444Z,94.40
2018-05-29T00:53:52.927Z,94.50
2018-05-29T00:55:08.372Z,94.50
2018-05-29T00:56:12.029Z,94.50
2018-05-29T00:57:14.528Z,94.50
2018-05-29T00:58:17.012Z,94.60
2018-05-29T00:59:20.261Z,94.60
2018-05-29T01:00:23.116Z,94.60
2018-05-29T01:01:25.884Z,94.60
2018-05-29T01:02:28.397Z,94.60
2018-05-29T01:03:30.876Z,94.70
2018-05-29T01:04:34.124Z,94.90
2018-05-29T01:05:36.971Z,94.90
2018-05-29T01:06:39.468Z,95.00
2018-05-29T01:07:41.952Z,95.00
2018-05-29T01:08:45.945Z,95.10
2018-05-29T01:09:48.424Z,95.10
2018-05-29T01:10:51.994Z,95.10
2018-05-29T01:11:54.496Z,95.10
2018-05-29T01:12:57.739Z,95.20
2018-05-29T01:14:00.232Z,95.20
2018-05-29T01:15:03.757Z,95.40
2018-05-29T01:16:07.144Z,95.40
2018-05-29T01:17:09.659Z,95.50
2018-05-29T01:18:13.647Z,95.70
2018-05-29T01:19:16.121Z,95.60
2018-05-29T01:20:20.290Z,95.80
2018-05-29T01:21:23.024Z,95.80
2018-05-29T01:22:26.268Z,95.80
2018-05-29T01:23:28.752Z,95.90
2018-05-29T01:24:31.992Z,96.00
2018-05-29T01:25:34.768Z,96.00
2018-05-29T01:26:37.285Z,96.00
2018-05-29T01:27:40.531Z,96.00
2018-05-29T01:28:43.013Z,96.00
2018-05-29T01:29:46.995Z,96.00
2018-05-29T01:30:49.775Z,96.00
2018-05-29T01:31:53.076Z,96.00
2018-05-29T01:32:56.320Z,96.10
2018-05-29T01:33:58.796Z,96.00
2018-05-29T01:35:01.271Z,96.10
2018-05-29T01:36:04.028Z,96.50
2018-05-29T01:37:06.531Z,96.30
2018-05-29T01:38:09.021Z,96.30
2018-05-29T01:39:11.495Z,96.30
2018-05-29T01:40:14.263Z,96.30
2018-05-29T01:41:17.078Z,96.40
2018-05-29T01:42:20.355Z,96.40
2018-05-29T01:43:22.836Z,96.40
2018-05-29T01:44:25.307Z,96.50
2018-05-29T01:45:28.017Z,96.50
2018-05-29T01:46:30.523Z,96.60
2018-05-29T01:47:33.028Z,96.60
2018-05-29T01:48:36.276Z,96.70
2018-05-29T01:49:38.754Z,96.70
2018-05-29T01:50:42.386Z,96.70
2018-05-29T01:51:44.901Z,96.60
2018-05-29T01:52:47.395Z,96.60
2018-05-29T01:53:50.635Z,96.70
2018-05-29T01:54:53.115Z,96.70
2018-05-29T01:55:57.482Z,96.80
2018-05-29T01:56:59.976Z,96.80
2018-05-29T01:58:02.479Z,96.80
2018-05-29T01:59:05.724Z,96.90
2018-05-29T02:00:08.472Z,96.80
2018-05-29T02:01:11.273Z,96.90
2018-05-29T02:02:14.536Z,96.90
2018-05-29T02:03:17.038Z,96.90
2018-05-29T02:04:20.313Z,97.00
2018-05-29T02:05:23.029Z,97.00
2018-05-29T02:06:25.847Z,97.00
2018-05-29T02:07:29.107Z,97.30
2018-05-29T02:08:31.604Z,97.10
2018-05-29T02:09:34.852Z,97.20
2018-05-29T02:10:37.612Z,97.20
2018-05-29T02:11:40.116Z,97.20
2018-05-29T02:12:42.596Z,97.30
2018-05-29T02:13:45.860Z,97.30
2018-05-29T02:14:48.336Z,97.30
2018-05-29T02:15:52.176Z,97.20
2018-05-29T02:16:54.676Z,97.30
2018-05-29T02:17:57.151Z,97.30
2018-05-29T02:18:59.659Z,97.40
2018-05-29T02:20:02.136Z,97.40
2018-05-29T02:21:04.853Z,97.40
2018-05-29T02:22:08.116Z,97.50
2018-05-29T02:23:10.588Z,97.40
2018-05-29T02:24:13.084Z,97.50
2018-05-29T02:25:16.633Z,97.60
2018-05-29T02:26:21.018Z,97.60
2018-05-29T02:27:23.524Z,97.60
2018-05-29T02:28:25.999Z,97.60
2018-05-29T02:29:30.004Z,97.60
2018-05-29T02:30:33.434Z,97.60
2018-05-29T02:31:35.936Z,97.60
2018-05-29T02:32:38.427Z,97.70
2018-05-29T02:33:41.669Z,97.70
2018-05-29T02:34:44.168Z,97.60
2018-05-29T02:35:48.417Z,97.70
2018-05-29T02:36:50.925Z,97.70
2018-05-29T02:37:53.408Z,97.70
2018-05-29T02:38:56.652Z,97.90
2018-05-29T02:39:59.153Z,97.70
2018-05-29T02:41:03.400Z,97.80
2018-05-29T02:42:05.900Z,97.80
2018-05-29T02:43:08.376Z,97.80
2018-05-29T02:44:10.852Z,97.80
2018-05-29T02:45:15.146Z,97.80
2018-05-29T02:46:18.897Z,97.80
2018-05-29T02:47:21.408Z,97.80
2018-05-29T02:48:23.884Z,97.90
2018-05-29T02:49:27.868Z,97.80
2018-05-29T02:50:31.005Z,97.80
2018-05-29T02:51:33.516Z,97.80
2018-05-29T02:52:35.996Z,97.80
2018-05-29T02:53:39.240Z,97.80
2018-05-29T02:54:41.723Z,97.80
2018-05-29T02:55:45.728Z,97.80
2018-05-29T02:56:48.988Z,97.90
2018-05-29T02:57:51.531Z,97.80
2018-05-29T02:58:54.006Z,97.90
2018-05-29T02:59:56.486Z,98.00
2018-05-29T03:00:59.276Z,98.00
2018-05-29T03:02:02.549Z,98.30
2018-05-29T03:03:05.028Z,98.00
2018-05-29T03:04:07.503Z,98.00
2018-05-29T03:05:11.853Z,98.00
2018-05-29T03:06:15.344Z,98.00
2018-05-29T03:07:17.852Z,98.00
2018-05-29T03:08:20.576Z,98.10
2018-05-29T03:09:23.080Z,98.10
2018-05-29T03:10:25.857Z,98.20
2018-05-29T03:11:29.136Z,98.30
2018-05-29T03:12:31.615Z,98.20
2018-05-29T03:13:34.374Z,98.30
2018-05-29T03:14:37.644Z,98.40
2018-05-29T03:15:40.439Z,98.30
2018-05-29T03:16:42.988Z,98.30
2018-05-29T03:17:45.464Z,98.40
2018-05-29T03:18:47.939Z,98.30
2018-05-29T03:19:51.183Z,98.60
2018-05-29T03:20:53.985Z,98.30
2018-05-29T03:21:57.280Z,98.30
2018-05-29T03:22:59.760Z,98.20
2018-05-29T03:24:03.008Z,98.40
2018-05-29T03:25:05.843Z,98.40
2018-05-29T03:26:08.662Z,98.40
2018-05-29T03:27:11.940Z,98.60
2018-05-29T03:28:14.415Z,98.40
2018-05-29T03:29:17.660Z,98.40
2018-05-29T03:30:20.307Z,98.40
2018-05-29T03:31:22.816Z,98.50
2018-05-29T03:32:25.313Z,98.50
2018-05-29T03:33:28.552Z,98.90
2018-05-29T03:34:31.066Z,98.60
2018-05-29T03:35:33.760Z,98.60
2018-05-29T03:36:36.271Z,98.70
2018-05-29T03:37:38.769Z,98.60
2018-05-29T03:38:42.032Z,98.70
2018-05-29T03:39:44.508Z,98.60
2018-05-29T03:40:48.068Z,98.70
2018-05-29T03:41:51.327Z,98.70
2018-05-29T03:42:53.833Z,98.70
2018-05-29T03:43:57.815Z,98.80
2018-05-29T03:45:00.295Z,98.80
2018-05-29T03:46:02.947Z,98.80
2018-05-29T03:47:06.220Z,98.80
2018-05-29T03:48:08.716Z,98.80
2018-05-29T03:49:11.192Z,98.90
2018-05-29T03:50:15.097Z,99.00
2018-05-29T03:51:17.894Z,98.90
2018-05-29T03:52:20.375Z,99.00
2018-05-29T03:53:23.229Z,99.00
2018-05-29T03:54:25.747Z,99.00
2018-05-29T03:55:28.512Z,99.00
2018-05-29T03:56:31.033Z,98.90
2018-05-29T03:57:33.507Z,98.90
2018-05-29T03:58:36.008Z,98.90
2018-05-29T03:59:38.484Z,98.90
2018-05-29T04:00:42.015Z,99.20
2018-05-29T04:01:44.527Z,98.90
2018-05-29T04:02:47.008Z,98.90
2018-05-29T04:03:50.376Z,98.90
2018-05-29T04:04:52.852Z,98.90
2018-05-29T04:05:56.384Z,98.90
2018-05-29T04:06:58.892Z,98.90
2018-05-29T04:08:01.369Z,98.90
2018-05-29T04:09:03.872Z,98.90
2018-05-29T04:10:06.654Z,99.00
2018-05-29T04:11:10.138Z,98.90
2018-05-29T04:12:12.627Z,98.90
2018-05-29T04:13:15.105Z,99.00
2018-05-29T04:14:17.599Z,99.00
2018-05-29T04:15:21.173Z,98.90
2018-05-29T04:16:26.217Z,98.90
2018-05-29T04:17:29.457Z,99.00
2018-05-29T04:18:31.932Z,98.90
2018-05-29T04:19:34.429Z,99.00
2018-05-29T04:20:37.965Z,99.00
2018-05-29T04:21:40.456Z,99.00
2018-05-29T04:22:42.932Z,99.00
2018-05-29T04:23:45.412Z,99.00
2018-05-29T04:24:48.679Z,99.10
2018-05-29T04:25:51.397Z,99.00
2018-05-29T04:26:53.907Z,99.00
2018-05-29T04:27:56.380Z,99.10
2018-05-29T04:28:58.852Z,99.00
2018-05-29T04:30:01.349Z,99.00
2018-05-29T04:31:04.024Z,99.00
2018-05-29T04:32:06.524Z,99.00
2018-05-29T04:33:09.000Z,99.00
2018-05-29T04:34:11.475Z,99.00
2018-05-29T04:35:15.109Z,98.70
2018-05-29T04:36:17.881Z,98.90
2018-05-29T04:37:20.391Z,98.90
2018-05-29T04:38:22.872Z,98.90
2018-05-29T04:39:25.347Z,99.00
2018-05-29T04:40:28.818Z,99.00
2018-05-29T04:41:32.083Z,99.00
2018-05-29T04:42:34.568Z,98.90
2018-05-29T04:43:37.822Z,98.90
2018-05-29T04:44:40.304Z,98.90
2018-05-29T04:45:43.028Z,98.90
2018-05-29T04:46:45.527Z,98.90
2018-05-29T04:47:48.008Z,98.90
2018-05-29T04:48:50.483Z,98.80
2018-05-29T04:49:53.728Z,98.70
2018-05-29T04:50:56.447Z,98.70
2018-05-29T04:51:58.948Z,98.70
2018-05-29T04:53:01.424Z,98.70
2018-05-29T04:54:03.896Z,98.60
2018-05-29T04:55:06.687Z,98.60
2018-05-29T04:56:10.333Z,98.60
2018-05-29T04:57:12.831Z,98.60
2018-05-29T04:58:15.305Z,98.60
2018-05-29T04:59:17.787Z,98.50
2018-05-29T05:00:21.262Z,98.50
2018-05-29T05:01:24.909Z,98.50
2018-05-29T05:02:27.453Z,98.50
2018-05-29T05:03:30.671Z,98.50
2018-05-29T05:04:33.143Z,98.40
2018-05-29T05:05:35.893Z,98.40
2018-05-29T05:06:38.431Z,98.30
2018-05-29T05:07:41.675Z,98.30
2018-05-29T05:08:44.155Z,98.20
2018-05-29T05:09:48.140Z,98.20
2018-05-29T05:10:51.695Z,98.20
2018-05-29T05:11:54.227Z,98.20
2018-05-29T05:12:57.470Z,98.20
2018-05-29T05:14:00.007Z,98.20
2018-05-29T05:15:02.553Z,98.20
2018-05-29T05:16:05.959Z,98.10
2018-05-29T05:17:08.484Z,98.10
2018-05-29T05:18:11.728Z,98.10
2018-05-29T05:19:14.216Z,98.00
2018-05-29T05:20:16.955Z,98.00
2018-05-29T05:21:20.582Z,98.00
2018-05-29T05:22:23.865Z,98.00
2018-05-29T05:23:26.339Z,98.00
2018-05-29T05:24:30.323Z,98.00
2018-05-29T05:25:33.054Z,98.00
2018-05-29T05:26:35.551Z,98.00
2018-05-29T05:27:38.056Z,97.90
2018-05-29T05:28:41.300Z,98.00
2018-05-29T05:29:43.783Z,98.00
2018-05-29T05:30:47.198Z,98.10
2018-05-29T05:31:49.696Z,98.10
2018-05-29T05:32:52.188Z,98.10
2018-05-29T05:33:54.669Z,98.10
2018-05-29T05:34:57.143Z,98.20
2018-05-29T05:36:01.995Z,98.20
2018-05-29T05:37:04.509Z,98.30
2018-05-29T05:38:07.003Z,98.30
2018-05-29T05:39:10.246Z,98.30
2018-05-29T05:40:13.081Z,98.30
2018-05-29T05:41:15.892Z,98.30
2018-05-29T05:42:19.887Z,98.20
2018-05-29T05:43:23.280Z,98.20
2018-05-29T05:44:25.760Z,98.10
2018-05-29T05:45:29.190Z,98.30
2018-05-29T05:46:31.696Z,98.10
2018-05-29T05:47:34.171Z,98.10
2018-05-29T05:48:37.440Z,98.10
2018-05-29T05:49:39.924Z,98.10
2018-05-29T05:50:43.456Z,97.80
2018-05-29T05:51:45.969Z,97.70
2018-05-29T05:52:48.488Z,97.80
2018-05-29T05:53:51.724Z,97.90
2018-05-29T05:54:54.199Z,97.90
2018-05-29T05:55:57.722Z,98.10
2018-05-29T05:57:00.245Z,98.10
2018-05-29T05:58:03.502Z,98.10
2018-05-29T05:59:06.008Z,98.10
2018-05-29T06:00:09.526Z,98.10
2018-05-29T06:01:12.299Z,98.10
2018-05-29T06:02:14.805Z,98.10
2018-05-29T06:03:17.327Z,97.90
2018-05-29T06:04:19.847Z,97.60
2018-05-29T06:05:23.385Z,97.00
2018-05-29T06:06:26.074Z,97.00
2018-05-29T06:07:28.582Z,96.80
2018-05-29T06:08:31.836Z,96.70
2018-05-29T06:09:34.461Z,96.70
2018-05-29T06:10:37.240Z,96.80
2018-05-29T06:11:39.837Z,96.80
2018-05-29T06:12:43.104Z,96.90
2018-05-29T06:13:45.680Z,97.00
2018-05-29T06:14:48.198Z,96.70
2018-05-29T06:15:51.589Z,96.10
2018-05-29T06:16:54.085Z,96.10
2018-05-29T06:17:56.608Z,95.90
2018-05-29T06:18:59.847Z,95.90
2018-05-29T06:20:02.353Z,95.90
2018-05-29T06:21:07.354Z,95.90
2018-05-29T06:22:11.353Z,95.90
2018-05-29T06:23:13.836Z,95.90
2018-05-29T06:24:17.109Z,95.70
2018-05-29T06:25:20.955Z,95.70
2018-05-29T06:26:23.830Z,95.40
2018-05-29T06:27:26.341Z,94.90
2018-05-29T06:28:29.621Z,94.10
2018-05-29T06:29:32.104Z,94.10
2018-05-29T06:30:34.917Z,93.80
2018-05-29T06:31:37.721Z,93.20
2018-05-29T06:32:41.757Z,92.70
2018-05-29T06:33:45.069Z,91.60
2018-05-29T06:34:47.548Z,91.60
2018-05-29T06:35:50.312Z,91.30
2018-05-29T06:36:52.825Z,91.00
2018-05-29T06:37:56.064Z,90.40
2018-05-29T06:38:58.532Z,90.40
2018-05-29T06:40:01.008Z,90.20
2018-05-29T06:41:03.856Z,89.40
2018-05-29T06:42:06.352Z,89.00
2018-05-29T06:43:08.840Z,88.80
2018-05-29T06:44:12.819Z,87.80
2018-05-29T06:45:15.659Z,87.70
2018-05-29T06:46:18.475Z,87.40
2018-05-29T06:47:21.723Z,86.60
2018-05-29T06:48:24.200Z,86.60
2018-05-29T06:49:26.664Z,86.20
2018-05-29T06:50:29.413Z,85.90
2018-05-29T06:51:31.935Z,85.80
2018-05-29T06:52:35.186Z,86.00
2018-05-29T06:53:37.669Z,86.00
2018-05-29T06:54:40.143Z,86.00
2018-05-29T06:55:44.440Z,85.70
2018-05-29T06:56:47.731Z,85.70
2018-05-29T06:57:51.730Z,85.80
2018-05-29T06:58:54.200Z,85.80
2018-05-29T06:59:57.444Z,85.20
2018-05-29T07:01:00.137Z,85.70
2018-05-29T07:02:03.425Z,85.70
2018-05-29T07:03:05.888Z,85.50
2018-05-29T07:04:08.364Z,85.50
2018-05-29T07:05:11.182Z,85.50
2018-05-29T07:06:14.057Z,85.40
2018-05-29T07:07:16.564Z,85.10
2018-05-29T07:08:19.044Z,84.70
2018-05-29T07:09:29.039Z,84.40
2018-05-29T07:10:31.810Z,84.30
2018-05-29T07:11:34.299Z,83.80
2018-05-29T07:12:36.787Z,83.70
2018-05-29T07:13:40.032Z,83.40
2018-05-29T07:14:42.503Z,83.40
2018-05-29T07:15:45.299Z,83.10
2018-05-29T07:16:48.555Z,82.60
2018-05-29T07:17:51.053Z,82.70
2018-05-29T07:18:54.332Z,82.40
2018-05-29T07:19:58.322Z,82.20
2018-05-29T07:21:01.046Z,82.20
2018-05-29T07:22:03.532Z,81.70
2018-05-29T07:23:06.032Z,81.50
2018-05-29T07:24:08.504Z,81.30
2018-05-29T07:25:11.256Z,81.10
2018-05-29T07:26:15.930Z,80.10
2018-05-29T07:27:18.433Z,80.00
2018-05-29T07:28:20.937Z,79.50
2018-05-29T07:29:24.179Z,78.30
2018-05-29T07:30:26.914Z,78.30
2018-05-29T07:31:29.414Z,78.00
2018-05-29T07:32:31.891Z,78.00
2018-05-29T07:33:34.384Z,77.90
2018-05-29T07:34:37.623Z,78.00
2018-05-29T07:35:41.281Z,77.90
2018-05-29T07:36:43.779Z,77.70
2018-05-29T07:37:46.252Z,77.50
2018-05-29T07:38:48.748Z,77.00
2018-05-29T07:39:51.987Z,76.80
2018-05-29T07:40:54.681Z,76.80
2018-05-29T07:41:57.932Z,76.70
2018-05-29T07:43:00.407Z,76.60
2018-05-29T07:44:02.904Z,76.50
2018-05-29T07:45:06.319Z,76.00
2018-05-29T07:46:10.634Z,76.00
2018-05-29T07:47:13.128Z,76.00
2018-05-29T07:48:15.600Z,76.10
2018-05-29T07:49:18.096Z,76.30
2018-05-29T07:50:21.645Z,76.70
2018-05-29T07:51:24.490Z,76.70
2018-05-29T07:52:26.992Z,76.70
2018-05-29T07:53:29.463Z,76.70
2018-05-29T07:54:31.959Z,76.60
2018-05-29T07:55:35.380Z,77.00
2018-05-29T07:56:37.872Z,77.00
2018-05-29T07:57:40.341Z,77.10
2018-05-29T07:58:42.820Z,76.90
2018-05-29T07:59:46.084Z,76.70
2018-05-29T08:00:48.921Z,76.70
2018-05-29T08:01:51.424Z,76.80
2018-05-29T08:02:53.900Z,76.80
2018-05-29T08:03:57.136Z,77.20
2018-05-29T08:04:59.633Z,77.20
2018-05-29T08:06:02.471Z,77.30
2018-05-29T08:07:04.984Z,77.10
2018-05-29T08:08:08.231Z,77.80
2018-05-29T08:09:10.707Z,77.10
2018-05-29T08:10:13.417Z,77.00
2018-05-29T08:11:16.165Z,77.00
2018-05-29T08:12:20.160Z,76.80
2018-05-29T08:13:22.632Z,76.80
2018-05-29T08:14:25.108Z,76.70
2018-05-29T08:15:28.642Z,77.60
2018-05-29T08:16:31.136Z,76.80
2018-05-29T08:17:33.612Z,76.80
2018-05-29T08:18:36.118Z,77.00
2018-05-29T08:19:39.330Z,77.20
2018-05-29T08:20:42.123Z,77.20
2018-05-29T08:21:45.384Z,77.00
2018-05-29T08:22:47.855Z,77.10
2018-05-29T08:23:50.328Z,76.80
2018-05-29T08:24:52.801Z,76.60
2018-05-29T08:25:56.200Z,76.50
2018-05-29T08:26:59.456Z,76.20
2018-05-29T08:28:01.929Z,76.20
2018-05-29T08:29:04.399Z,76.00
2018-05-29T08:30:07.167Z,75.80
2018-05-29T08:31:10.779Z,75.50
2018-05-29T08:32:13.290Z,75.60
2018-05-29T08:33:15.760Z,75.20
2018-05-29T08:34:18.232Z,75.00
2018-05-29T08:35:21.710Z,75.00
2018-05-29T08:36:24.515Z,75.00
2018-05-29T08:37:26.999Z,75.00
2018-05-29T08:38:29.467Z,74.90
2018-05-29T08:39:31.992Z,75.00
2018-05-29T08:40:35.462Z,74.90
2018-05-29T08:41:37.988Z,75.50
2018-05-29T08:42:41.224Z,74.90
2018-05-29T08:43:43.696Z,74.30
2018-05-29T08:44:46.171Z,74.00
2018-05-29T08:45:49.016Z,73.90
2018-05-29T08:46:51.539Z,74.00
2018-05-29T08:47:54.008Z,74.10
2018-05-29T08:48:57.251Z,74.00
2018-05-29T08:49:59.724Z,74.00
2018-05-29T08:51:02.869Z,73.80
2018-05-29T08:52:05.403Z,73.80
2018-05-29T08:53:08.645Z,73.70
2018-05-29T08:54:11.115Z,73.60
2018-05-29T08:55:13.750Z,73.80
2018-05-29T08:56:16.978Z,73.80
2018-05-29T08:57:19.507Z,72.60
2018-05-29T08:58:21.961Z,72.20
2018-05-29T08:59:24.442Z,72.30
2018-05-29T09:00:27.131Z,72.30
2018-05-29T09:01:29.620Z,72.00
2018-05-29T09:02:32.104Z,72.10
2018-05-29T09:03:34.580Z,72.30
2018-05-29T09:04:37.066Z,72.50
2018-05-29T09:05:39.929Z,72.30
2018-05-29T09:06:42.415Z,71.90
2018-05-29T09:07:44.916Z,71.80
2018-05-29T09:08:48.154Z,71.50
2018-05-29T09:09:50.620Z,71.40
2018-05-29T09:10:54.236Z,71.10
2018-05-29T09:11:56.775Z,71.00
2018-05-29T09:12:59.248Z,71.40
2018-05-29T09:14:01.728Z,71.90
2018-05-29T09:15:04.506Z,72.10
2018-05-29T09:16:07.336Z,72.20
2018-05-29T09:17:09.828Z,72.40
2018-05-29T09:18:12.336Z,72.50
2018-05-29T09:19:14.820Z,72.60
2018-05-29T09:20:17.602Z,72.70
2018-05-29T09:21:21.191Z,72.80
2018-05-29T09:22:23.687Z,72.00
2018-05-29T09:23:26.191Z,71.10
2018-05-29T09:24:29.429Z,70.30
2018-05-29T09:25:32.174Z,70.30
2018-05-29T09:26:34.688Z,70.00
2018-05-29T09:27:37.921Z,70.40
2018-05-29T09:28:40.425Z,70.40
2018-05-29T09:29:42.915Z,70.60
2018-05-29T09:30:45.623Z,70.70
2018-05-29T09:31:48.124Z,70.70
2018-05-29T09:32:50.603Z,70.60
2018-05-29T09:33:54.608Z,70.60
2018-05-29T09:34:57.840Z,70.50
2018-05-29T09:36:00.606Z,70.50
2018-05-29T09:37:03.116Z,70.10
2018-05-29T09:38:07.092Z,69.70
2018-05-29T09:39:09.588Z,69.70
2018-05-29T09:40:12.467Z,69.90
2018-05-29T09:41:15.287Z,70.00
2018-05-29T09:42:17.780Z,69.80
2018-05-29T09:43:20.254Z,69.30
2018-05-29T09:44:22.732Z,68.40
2018-05-29T09:45:25.486Z,67.90
2018-05-29T09:46:28.741Z,66.90
2018-05-29T09:47:31.220Z,67.50
2018-05-29T09:48:33.691Z,67.30
2018-05-29T09:49:36.437Z,67.50
2018-05-29T09:50:39.092Z,67.60
2018-05-29T09:51:41.584Z,67.60
2018-05-29T09:52:44.048Z,67.40
2018-05-29T09:53:46.519Z,67.30
2018-05-29T09:54:49.255Z,67.20
2018-05-29T09:55:52.034Z,67.10
2018-05-29T09:56:54.531Z,66.80
2018-05-29T09:57:56.999Z,66.20
2018-05-29T09:58:59.460Z,65.40
2018-05-29T10:00:01.970Z,64.90
2018-05-29T10:01:04.766Z,64.50
2018-05-29T10:02:07.268Z,64.00
2018-05-29T10:03:09.732Z,63.60
2018-05-29T10:04:12.212Z,63.60
2018-05-29T10:05:16.567Z,64.60
2018-05-29T10:06:19.378Z,64.60
2018-05-29T10:07:21.871Z,65.30
2018-05-29T10:08:25.111Z,66.00
2018-05-29T10:09:27.591Z,66.00
2018-05-29T10:10:30.360Z,66.30
2018-05-29T10:11:32.840Z,65.80
2018-05-29T10:12:35.304Z,65.50
2018-05-29T10:13:38.541Z,65.30
2018-05-29T10:14:41.012Z,65.30
2018-05-29T10:15:43.813Z,65.00
2018-05-29T10:16:46.295Z,64.70
2018-05-29T10:17:48.756Z,64.10
2018-05-29T10:18:51.219Z,63.90
2018-05-29T10:19:53.683Z,64.00
2018-05-29T10:20:56.501Z,64.10
2018-05-29T10:21:59.000Z,64.10
2018-05-29T10:23:01.468Z,64.10
2018-05-29T10:24:03.944Z,64.00
2018-05-29T10:25:06.663Z,64.10
2018-05-29T10:26:09.435Z,63.90
2018-05-29T10:27:11.925Z,63.60
2018-05-29T10:28:14.397Z,63.50
2018-05-29T10:29:16.870Z,63.60
2018-05-29T10:30:20.418Z,63.30
2018-05-29T10:31:23.291Z,63.30
2018-05-29T10:32:25.772Z,63.20
2018-05-29T10:33:28.248Z,63.20
2018-05-29T10:34:30.716Z,63.20
2018-05-29T10:35:33.373Z,63.80
2018-05-29T10:36:35.889Z,64.40
2018-05-29T10:37:39.125Z,64.60
2018-05-29T10:38:41.592Z,64.60
2018-05-29T10:39:44.064Z,64.60
2018-05-29T10:40:46.700Z,64.90
2018-05-29T10:41:49.204Z,64.90
2018-05-29T10:42:51.683Z,64.80
2018-05-29T10:43:54.148Z,64.80
2018-05-29T10:44:56.619Z,64.50
2018-05-29T10:45:59.398Z,63.90
2018-05-29T10:47:02.664Z,63.00
2018-05-29T10:48:05.136Z,62.80
2018-05-29T10:49:07.596Z,62.90
2018-05-29T10:50:10.414Z,63.00
2018-05-29T10:51:13.286Z,63.10
2018-05-29T10:52:15.793Z,63.10
2018-05-29T10:53:18.260Z,63.00
2018-05-29T10:54:20.732Z,63.10
2018-05-29T10:55:24.988Z,62.20
2018-05-29T10:56:27.802Z,62.20
2018-05-29T10:57:31.811Z,61.20
2018-05-29T10:58:35.043Z,60.90
2018-05-29T10:59:37.520Z,60.90
2018-05-29T11:00:40.174Z,60.80
2018-05-29T11:01:42.667Z,60.70
2018-05-29T11:02:45.155Z,60.90
2018-05-29T11:03:47.623Z,60.80
2018-05-29T11:04:50.095Z,60.70
2018-05-29T11:05:52.847Z,60.60
2018-05-29T11:06:55.381Z,60.50
2018-05-29T11:07:58.591Z,59.20
2018-05-29T11:09:01.059Z,59.20
2018-05-29T11:10:03.533Z,59.20
2018-05-29T11:11:08.912Z,58.10
2018-05-29T11:12:11.412Z,58.10
2018-05-29T11:13:13.914Z,57.90
2018-05-29T11:14:17.176Z,57.10
2018-05-29T11:15:19.897Z,57.10
2018-05-29T11:16:22.569Z,56.90
2018-05-29T11:17:25.032Z,56.70
2018-05-29T11:18:27.524Z,56.20
2018-05-29T11:19:29.988Z,55.80
2018-05-29T11:20:32.625Z,55.70
2018-05-29T11:21:35.108Z,55.60
2018-05-29T11:22:37.574Z,56.10
2018-05-29T11:23:40.062Z,55.30
2018-05-29T11:24:42.520Z,55.40
2018-05-29T11:25:45.356Z,55.50
2018-05-29T11:26:47.832Z,55.70
2018-05-29T11:27:50.348Z,56.00
2018-05-29T11:28:52.840Z,56.40
2018-05-29T11:29:55.315Z,56.70
2018-05-29T11:30:58.599Z,57.10
2018-05-29T11:32:01.096Z,57.20
2018-05-29T11:33:03.560Z,57.10
2018-05-29T11:34:06.044Z,57.20
2018-05-29T11:35:08.763Z,57.00
2018-05-29T11:36:11.440Z,56.90
2018-05-29T11:37:13.927Z,56.60
2018-05-29T11:38:16.392Z,56.40
2018-05-29T11:39:18.882Z,56.30
2018-05-29T11:40:22.107Z,56.30
2018-05-29T11:41:24.879Z,56.40
2018-05-29T11:42:27.363Z,56.40
2018-05-29T11:43:29.887Z,56.50
2018-05-29T11:44:32.339Z,56.50
2018-05-29T11:45:35.863Z,56.00
2018-05-29T11:46:38.386Z,56.00
2018-05-29T11:47:40.867Z,56.00
2018-05-29T11:48:44.100Z,55.20
2018-05-29T11:49:46.581Z,55.20
2018-05-29T11:50:49.315Z,54.80
2018-05-29T11:51:51.812Z,54.80
2018-05-29T11:52:54.280Z,54.60
2018-05-29T11:53:56.744Z,54.10
2018-05-29T11:54:59.280Z,54.00
2018-05-29T11:56:02.756Z,54.30
2018-05-29T11:57:05.243Z,54.20
2018-05-29T11:58:07.715Z,54.30
2018-05-29T11:59:10.185Z,54.20
2018-05-29T12:00:12.741Z,53.90
2018-05-29T12:01:15.249Z,53.80
2018-05-29T12:02:18.491Z,53.60
2018-05-29T12:03:20.952Z,53.60
2018-05-29T12:04:23.419Z,53.80
2018-05-29T12:05:26.522Z,53.00
2018-05-29T12:06:29.102Z,52.70
2018-05-29T12:07:31.578Z,52.50
2018-05-29T12:08:34.812Z,51.90
2018-05-29T12:09:37.271Z,51.90
2018-05-29T12:10:40.122Z,51.70
2018-05-29T12:11:42.647Z,51.60
2018-05-29T12:12:45.107Z,51.50
2018-05-29T12:13:47.674Z,51.30
2018-05-29T12:14:50.160Z,51.20
2018-05-29T12:15:54.418Z,51.10
2018-05-29T12:16:57.683Z,50.00
2018-05-29T12:18:00.140Z,50.80
2018-05-29T12:19:02.610Z,48.80
2018-05-29T12:20:05.071Z,48.10
2018-05-29T12:21:07.877Z,47.60
2018-05-29T12:22:11.128Z,47.20
2018-05-29T12:23:13.591Z,47.30
2018-05-29T12:24:16.060Z,47.20
2018-05-29T12:25:18.766Z,47.30
2018-05-29T12:26:21.507Z,47.40
2018-05-29T12:27:23.987Z,47.90
2018-05-29T12:28:26.452Z,47.50
2018-05-29T12:29:28.915Z,47.30
2018-05-29T12:30:31.653Z,46.90
2018-05-29T12:31:34.174Z,46.60
2018-05-29T12:32:36.642Z,46.50
2018-05-29T12:33:39.122Z,45.70
2018-05-29T12:34:42.347Z,45.20
2018-05-29T12:35:45.005Z,45.20
2018-05-29T12:36:47.516Z,45.10
2018-05-29T12:37:49.981Z,45.40
2018-05-29T12:38:52.446Z,45.30
2018-05-29T12:39:54.907Z,44.90
2018-05-29T12:40:57.728Z,44.50
2018-05-29T12:42:00.246Z,44.40
2018-05-29T12:43:02.708Z,44.50
2018-05-29T12:44:05.176Z,44.40
2018-05-29T12:45:08.610Z,44.50
2018-05-29T12:46:11.345Z,44.30
2018-05-29T12:47:14.604Z,44.50
2018-05-29T12:48:17.068Z,44.50
2018-05-29T12:49:19.532Z,44.60
2018-05-29T12:50:22.364Z,44.50
2018-05-29T12:51:25.135Z,44.30
2018-05-29T12:52:27.659Z,44.40
2018-05-29T12:53:30.120Z,44.30
2018-05-29T12:54:34.084Z,43.80
2018-05-29T12:55:38.830Z,43.80
2018-05-29T12:56:41.320Z,43.50
2018-05-29T12:57:44.875Z,43.40
2018-05-29T12:58:47.336Z,43.40
2018-05-29T12:59:49.799Z,43.30
2018-05-29T13:00:52.317Z,43.40
2018-05-29T13:01:54.784Z,43.60
2018-05-29T13:02:57.280Z,43.70
2018-05-29T13:03:59.743Z,43.70
2018-05-29T13:05:02.211Z,43.90
2018-05-29T13:06:04.959Z,44.10
2018-05-29T13:07:07.461Z,44.50
2018-05-29T13:08:09.952Z,44.90
2018-05-29T13:09:12.416Z,45.50
2018-05-29T13:10:15.166Z,46.10
2018-05-29T13:11:18.040Z,46.40
2018-05-29T13:12:21.312Z,46.50
2018-05-29T13:13:23.796Z,46.50
2018-05-29T13:14:26.260Z,46.50
2018-05-29T13:15:29.082Z,46.40
2018-05-29T13:16:31.584Z,46.30
2018-05-29T13:17:34.044Z,46.30
2018-05-29T13:18:36.536Z,46.30
2018-05-29T13:19:38.995Z,46.30
2018-05-29T13:20:41.711Z,46.20
2018-05-29T13:21:44.208Z,46.20
2018-05-29T13:22:46.680Z,46.30
2018-05-29T13:23:49.167Z,46.40
2018-05-29T13:24:51.628Z,46.50
2018-05-29T13:25:54.441Z,46.50
2018-05-29T13:26:56.946Z,46.40
2018-05-29T13:27:59.429Z,46.50
2018-05-29T13:29:02.196Z,46.40